sensor_id;sensor_type;location;lat;lon;timestamp;pressure;altitude;pressure_sealevel;temperature;humidity
62164;BME280;48149;51.132;7.178;2023-06-14T00:01:23;98469.69;;;28.11;30.17
62164;BME280;48149;51.132;7.178;2023-06-14T00:03:48;98464.41;;;27.61;30.39
62164;BME280;48149;51.132;7.178;2023-06-14T00:06:13;98465.00;;;27.99;29.81
62164;BME280;48149;51.132;7.178;2023-06-14T00:08:39;98462.72;;;28.42;29.77
62164;BME280;48149;51.132;7.178;2023-06-14T00:11:05;98466.09;;;28.39;29.69
62164;BME280;48149;51.132;7.178;2023-06-14T00:13:30;98468.78;;;28.06;30.10
62164;BME280;48149;51.132;7.178;2023-06-14T00:15:56;98462.28;;;28.08;29.51
62164;BME280;48149;51.132;7.178;2023-06-14T00:18:21;98465.59;;;28.70;29.28
62164;BME280;48149;51.132;7.178;2023-06-14T00:20:49;98478.94;;;28.01;29.87
62164;BME280;48149;51.132;7.178;2023-06-14T00:23:14;98478.22;;;27.92;29.85
62164;BME280;48149;51.132;7.178;2023-06-14T00:25:40;98476.72;;;27.62;30.22
62164;BME280;48149;51.132;7.178;2023-06-14T00:28:05;98474.22;;;26.98;30.56
62164;BME280;48149;51.132;7.178;2023-06-14T00:30:30;98484.84;;;27.74;30.16
62164;BME280;48149;51.132;7.178;2023-06-14T00:32:55;98481.84;;;27.75;30.15
62164;BME280;48149;51.132;7.178;2023-06-14T00:35:21;98483.84;;;26.99;31.22
62164;BME280;48149;51.132;7.178;2023-06-14T00:37:46;98491.59;;;27.59;30.56
62164;BME280;48149;51.132;7.178;2023-06-14T00:40:11;98487.97;;;27.55;30.54
62164;BME280;48149;51.132;7.178;2023-06-14T00:42:36;98485.94;;;27.52;31.07
62164;BME280;48149;51.132;7.178;2023-06-14T00:45:02;98485.81;;;27.19;31.39
62164;BME280;48149;51.132;7.178;2023-06-14T00:47:27;98490.16;;;27.62;30.71
62164;BME280;48149;51.132;7.178;2023-06-14T00:49:55;98485.09;;;27.01;30.97
62164;BME280;48149;51.132;7.178;2023-06-14T00:52:22;98497.56;;;27.44;30.85
62164;BME280;48149;51.132;7.178;2023-06-14T00:54:49;98493.44;;;27.46;30.74
62164;BME280;48149;51.132;7.178;2023-06-14T00:57:14;98491.94;;;27.28;31.21
62164;BME280;48149;51.132;7.178;2023-06-14T00:59:43;98490.97;;;26.95;31.25
62164;BME280;48149;51.132;7.178;2023-06-14T01:02:09;98487.88;;;26.76;31.87
62164;BME280;48149;51.132;7.178;2023-06-14T01:04:35;98491.09;;;27.66;30.74
62164;BME280;48149;51.132;7.178;2023-06-14T01:07:07;98489.41;;;26.39;32.07
62164;BME280;48149;51.132;7.178;2023-06-14T01:14:54;98499.16;;;27.36;31.18
62164;BME280;48149;51.132;7.178;2023-06-14T01:17:19;98501.09;;;26.43;32.02
62164;BME280;48149;51.132;7.178;2023-06-14T01:19:45;98490.16;;;26.57;31.51
62164;BME280;48149;51.132;7.178;2023-06-14T01:22:11;98493.06;;;26.34;32.31
62164;BME280;48149;51.132;7.178;2023-06-14T01:24:36;98499.44;;;26.68;31.58
62164;BME280;48149;51.132;7.178;2023-06-14T01:27:01;98493.47;;;26.62;31.55
62164;BME280;48149;51.132;7.178;2023-06-14T01:29:27;98501.72;;;26.40;31.78
62164;BME280;48149;51.132;7.178;2023-06-14T01:31:58;98497.19;;;26.78;31.43
62164;BME280;48149;51.132;7.178;2023-06-14T01:34:23;98494.19;;;27.18;30.87
62164;BME280;48149;51.132;7.178;2023-06-14T01:36:48;98493.03;;;27.27;30.54
62164;BME280;48149;51.132;7.178;2023-06-14T01:39:14;98490.28;;;26.60;31.46
62164;BME280;48149;51.132;7.178;2023-06-14T01:41:40;98494.16;;;26.97;31.13
62164;BME280;48149;51.132;7.178;2023-06-14T01:44:06;98503.78;;;26.34;31.46
62164;BME280;48149;51.132;7.178;2023-06-14T01:46:31;98501.47;;;26.71;31.29
62164;BME280;48149;51.132;7.178;2023-06-14T01:48:56;98500.22;;;26.68;31.68
62164;BME280;48149;51.132;7.178;2023-06-14T01:51:22;98496.81;;;26.42;31.71
62164;BME280;48149;51.132;7.178;2023-06-14T01:53:47;98498.78;;;26.88;31.17
62164;BME280;48149;51.132;7.178;2023-06-14T01:56:13;98498.00;;;27.17;30.72
62164;BME280;48149;51.132;7.178;2023-06-14T01:58:38;98500.53;;;26.67;31.56
62164;BME280;48149;51.132;7.178;2023-06-14T02:01:04;98501.31;;;26.76;30.78
62164;BME280;48149;51.132;7.178;2023-06-14T02:03:30;98499.78;;;25.46;32.48
62164;BME280;48149;51.132;7.178;2023-06-14T02:05:55;98505.38;;;25.84;32.27
62164;BME280;48149;51.132;7.178;2023-06-14T02:08:21;98498.25;;;25.88;32.34
62164;BME280;48149;51.132;7.178;2023-06-14T02:10:47;98504.69;;;26.56;31.71
62164;BME280;48149;51.132;7.178;2023-06-14T02:13:12;98494.59;;;26.52;31.57
62164;BME280;48149;51.132;7.178;2023-06-14T02:15:37;98496.59;;;25.44;32.67
62164;BME280;48149;51.132;7.178;2023-06-14T02:18:02;98485.94;;;26.30;31.31
62164;BME280;48149;51.132;7.178;2023-06-14T02:20:28;98497.09;;;26.58;30.91
62164;BME280;48149;51.132;7.178;2023-06-14T02:22:53;98502.53;;;26.06;31.90
62164;BME280;48149;51.132;7.178;2023-06-14T02:25:18;98498.75;;;25.90;32.51
62164;BME280;48149;51.132;7.178;2023-06-14T02:27:44;98497.16;;;26.40;31.19
62164;BME280;48149;51.132;7.178;2023-06-14T02:30:09;98496.22;;;26.19;31.82
62164;BME280;48149;51.132;7.178;2023-06-14T02:32:35;98500.31;;;25.91;32.46
62164;BME280;48149;51.132;7.178;2023-06-14T02:35:00;98498.81;;;25.42;32.56
62164;BME280;48149;51.132;7.178;2023-06-14T02:37:26;98503.72;;;25.48;32.81
62164;BME280;48149;51.132;7.178;2023-06-14T02:39:51;98506.06;;;25.41;33.23
62164;BME280;48149;51.132;7.178;2023-06-14T02:42:16;98504.44;;;26.31;32.12
62164;BME280;48149;51.132;7.178;2023-06-14T02:44:41;98510.16;;;25.39;32.93
62164;BME280;48149;51.132;7.178;2023-06-14T02:47:08;98512.91;;;25.65;33.09
62164;BME280;48149;51.132;7.178;2023-06-14T02:49:33;98511.34;;;25.16;33.26
62164;BME280;48149;51.132;7.178;2023-06-14T02:51:59;98512.59;;;25.18;33.54
62164;BME280;48149;51.132;7.178;2023-06-14T02:54:24;98508.97;;;25.62;33.03
62164;BME280;48149;51.132;7.178;2023-06-14T02:56:49;98513.31;;;24.93;33.62
62164;BME280;48149;51.132;7.178;2023-06-14T02:59:15;98512.47;;;25.80;32.69
62164;BME280;48149;51.132;7.178;2023-06-14T03:01:42;98506.19;;;26.19;32.34
62164;BME280;48149;51.132;7.178;2023-06-14T03:04:08;98513.84;;;25.69;32.46
62164;BME280;48149;51.132;7.178;2023-06-14T03:06:33;98522.69;;;25.69;32.77
62164;BME280;48149;51.132;7.178;2023-06-14T03:08:59;98518.81;;;25.27;33.32
62164;BME280;48149;51.132;7.178;2023-06-14T03:11:25;98516.28;;;24.61;34.55
62164;BME280;48149;51.132;7.178;2023-06-14T03:13:51;98531.44;;;25.35;33.45
62164;BME280;48149;51.132;7.178;2023-06-14T03:16:16;98525.19;;;25.09;33.88
62164;BME280;48149;51.132;7.178;2023-06-14T03:18:45;98524.50;;;24.95;33.57
62164;BME280;48149;51.132;7.178;2023-06-14T03:21:10;98525.94;;;25.01;34.10
62164;BME280;48149;51.132;7.178;2023-06-14T03:23:36;98531.06;;;25.59;33.28
62164;BME280;48149;51.132;7.178;2023-06-14T03:26:01;98526.25;;;25.47;33.67
62164;BME280;48149;51.132;7.178;2023-06-14T03:28:26;98527.03;;;25.39;33.37
62164;BME280;48149;51.132;7.178;2023-06-14T03:30:52;98529.00;;;25.82;33.05
62164;BME280;48149;51.132;7.178;2023-06-14T03:33:17;98534.03;;;25.58;33.46
62164;BME280;48149;51.132;7.178;2023-06-14T03:35:43;98532.03;;;25.80;33.07
62164;BME280;48149;51.132;7.178;2023-06-14T03:38:08;98536.56;;;25.63;33.02
62164;BME280;48149;51.132;7.178;2023-06-14T03:40:33;98531.50;;;25.53;33.35
62164;BME280;48149;51.132;7.178;2023-06-14T03:42:58;98538.66;;;26.00;32.61
62164;BME280;48149;51.132;7.178;2023-06-14T03:45:23;98543.72;;;26.02;33.24
62164;BME280;48149;51.132;7.178;2023-06-14T03:47:49;98531.88;;;26.20;33.12
62164;BME280;48149;51.132;7.178;2023-06-14T03:50:15;98539.56;;;25.13;34.38
62164;BME280;48149;51.132;7.178;2023-06-14T03:52:40;98545.09;;;25.82;33.15
62164;BME280;48149;51.132;7.178;2023-06-14T03:55:07;98544.97;;;25.87;33.61
62164;BME280;48149;51.132;7.178;2023-06-14T03:57:33;98541.50;;;25.95;33.18
62164;BME280;48149;51.132;7.178;2023-06-14T03:59:58;98549.19;;;25.71;33.74
62164;BME280;48149;51.132;7.178;2023-06-14T04:02:23;98544.50;;;26.36;32.83
62164;BME280;48149;51.132;7.178;2023-06-14T04:04:48;98553.81;;;25.87;33.56
62164;BME280;48149;51.132;7.178;2023-06-14T04:07:14;98547.81;;;26.33;33.23
62164;BME280;48149;51.132;7.178;2023-06-14T04:09:40;98560.91;;;25.92;33.15
62164;BME280;48149;51.132;7.178;2023-06-14T04:12:06;98556.16;;;25.32;34.35
62164;BME280;48149;51.132;7.178;2023-06-14T04:14:32;98574.63;;;25.99;33.72
62164;BME280;48149;51.132;7.178;2023-06-14T04:16:58;98564.22;;;26.15;34.00
62164;BME280;48149;51.132;7.178;2023-06-14T04:19:23;98569.91;;;25.87;34.06
62164;BME280;48149;51.132;7.178;2023-06-14T04:21:48;98578.00;;;26.30;34.08
62164;BME280;48149;51.132;7.178;2023-06-14T04:24:13;98567.06;;;26.10;33.53
62164;BME280;48149;51.132;7.178;2023-06-14T04:26:39;98574.22;;;26.31;33.51
62164;BME280;48149;51.132;7.178;2023-06-14T04:29:05;98590.59;;;26.38;33.59
62164;BME280;48149;51.132;7.178;2023-06-14T04:31:30;98589.25;;;25.76;34.42
62164;BME280;48149;51.132;7.178;2023-06-14T04:33:58;98595.75;;;25.83;34.42
62164;BME280;48149;51.132;7.178;2023-06-14T04:36:24;98601.38;;;25.25;35.17
62164;BME280;48149;51.132;7.178;2023-06-14T04:38:50;98600.94;;;25.40;34.68
62164;BME280;48149;51.132;7.178;2023-06-14T04:41:19;98606.72;;;26.21;34.29
62164;BME280;48149;51.132;7.178;2023-06-14T04:43:44;98610.03;;;26.27;33.77
62164;BME280;48149;51.132;7.178;2023-06-14T04:46:14;98598.78;;;26.68;33.60
62164;BME280;48149;51.132;7.178;2023-06-14T04:48:40;98598.84;;;26.50;33.50
62164;BME280;48149;51.132;7.178;2023-06-14T04:51:07;98602.44;;;26.72;33.51
62164;BME280;48149;51.132;7.178;2023-06-14T04:53:33;98603.88;;;26.43;33.96
62164;BME280;48149;51.132;7.178;2023-06-14T04:55:59;98612.25;;;26.25;34.38
62164;BME280;48149;51.132;7.178;2023-06-14T04:58:26;98610.66;;;26.58;33.80
62164;BME280;48149;51.132;7.178;2023-06-14T05:00:51;98614.63;;;26.43;34.52
62164;BME280;48149;51.132;7.178;2023-06-14T05:03:16;98605.56;;;26.74;34.01
62164;BME280;48149;51.132;7.178;2023-06-14T05:05:43;98615.41;;;26.44;34.21
62164;BME280;48149;51.132;7.178;2023-06-14T05:08:08;98616.97;;;26.19;34.85
62164;BME280;48149;51.132;7.178;2023-06-14T05:10:34;98609.34;;;26.73;34.54
62164;BME280;48149;51.132;7.178;2023-06-14T05:13:01;98621.09;;;26.34;34.93
62164;BME280;48149;51.132;7.178;2023-06-14T05:15:26;98627.25;;;26.69;34.87
62164;BME280;48149;51.132;7.178;2023-06-14T05:17:51;98630.41;;;26.36;35.05
62164;BME280;48149;51.132;7.178;2023-06-14T05:20:20;98621.88;;;26.17;34.81
62164;BME280;48149;51.132;7.178;2023-06-14T05:22:45;98622.78;;;27.07;34.20
62164;BME280;48149;51.132;7.178;2023-06-14T05:25:11;98624.72;;;26.81;34.34
62164;BME280;48149;51.132;7.178;2023-06-14T05:27:36;98620.19;;;25.82;34.78
62164;BME280;48149;51.132;7.178;2023-06-14T05:30:02;98626.63;;;26.63;34.06
62164;BME280;48149;51.132;7.178;2023-06-14T05:32:28;98624.34;;;27.08;33.59
62164;BME280;48149;51.132;7.178;2023-06-14T05:34:54;98630.72;;;26.43;34.33
62164;BME280;48149;51.132;7.178;2023-06-14T05:37:19;98631.97;;;26.72;33.58
62164;BME280;48149;51.132;7.178;2023-06-14T05:39:44;98631.97;;;26.72;33.70
62164;BME280;48149;51.132;7.178;2023-06-14T05:42:09;98634.03;;;26.66;34.11
62164;BME280;48149;51.132;7.178;2023-06-14T05:44:34;98634.19;;;26.61;34.37
62164;BME280;48149;51.132;7.178;2023-06-14T05:47:00;98630.56;;;27.38;33.50
62164;BME280;48149;51.132;7.178;2023-06-14T05:49:25;98631.22;;;27.26;33.38
62164;BME280;48149;51.132;7.178;2023-06-14T05:51:50;98640.78;;;27.07;34.01
62164;BME280;48149;51.132;7.178;2023-06-14T05:54:16;98637.34;;;26.55;34.24
62164;BME280;48149;51.132;7.178;2023-06-14T05:56:41;98646.78;;;27.12;33.72
62164;BME280;48149;51.132;7.178;2023-06-14T05:59:06;98654.34;;;27.19;34.01
62164;BME280;48149;51.132;7.178;2023-06-14T06:01:31;98642.91;;;28.06;32.59
62164;BME280;48149;51.132;7.178;2023-06-14T06:03:58;98644.19;;;27.79;32.78
62164;BME280;48149;51.132;7.178;2023-06-14T06:06:24;98653.69;;;27.30;33.79
62164;BME280;48149;51.132;7.178;2023-06-14T06:08:50;98654.38;;;27.10;33.64
62164;BME280;48149;51.132;7.178;2023-06-14T06:11:15;98657.84;;;27.66;33.14
62164;BME280;48149;51.132;7.178;2023-06-14T06:13:40;98655.44;;;27.73;32.78
62164;BME280;48149;51.132;7.178;2023-06-14T06:16:06;98650.03;;;27.43;33.22
62164;BME280;48149;51.132;7.178;2023-06-14T06:18:31;98651.97;;;28.01;32.79
62164;BME280;48149;51.132;7.178;2023-06-14T06:20:56;98650.88;;;27.65;32.96
62164;BME280;48149;51.132;7.178;2023-06-14T06:23:22;98661.59;;;27.35;33.46
62164;BME280;48149;51.132;7.178;2023-06-14T06:25:47;98657.97;;;28.07;32.54
62164;BME280;48149;51.132;7.178;2023-06-14T06:28:12;98655.09;;;27.45;32.73
62164;BME280;48149;51.132;7.178;2023-06-14T06:30:38;98655.38;;;27.81;32.41
62164;BME280;48149;51.132;7.178;2023-06-14T06:33:03;98658.16;;;29.18;31.08
62164;BME280;48149;51.132;7.178;2023-06-14T06:35:28;98671.66;;;28.97;30.73
62164;BME280;48149;51.132;7.178;2023-06-14T06:37:55;98666.31;;;27.38;32.23
62164;BME280;48149;51.132;7.178;2023-06-14T06:40:21;98679.97;;;28.92;30.70
62164;BME280;48149;51.132;7.178;2023-06-14T06:42:46;98674.81;;;28.45;30.38
62164;BME280;48149;51.132;7.178;2023-06-14T06:45:12;98682.47;;;28.14;31.03
62164;BME280;48149;51.132;7.178;2023-06-14T06:47:37;98686.16;;;28.72;30.73
62164;BME280;48149;51.132;7.178;2023-06-14T06:50:02;98683.97;;;29.51;30.29
62164;BME280;48149;51.132;7.178;2023-06-14T06:52:27;98686.22;;;28.22;31.38
62164;BME280;48149;51.132;7.178;2023-06-14T06:54:54;98685.13;;;28.64;30.78
62164;BME280;48149;51.132;7.178;2023-06-14T06:57:21;98681.72;;;29.08;29.98
62164;BME280;48149;51.132;7.178;2023-06-14T06:59:47;98697.06;;;28.75;29.13
62164;BME280;48149;51.132;7.178;2023-06-14T07:02:12;98694.66;;;29.15;29.22
62164;BME280;48149;51.132;7.178;2023-06-14T07:04:38;98694.56;;;29.24;28.80
62164;BME280;48149;51.132;7.178;2023-06-14T07:07:03;98694.63;;;29.36;28.68
62164;BME280;48149;51.132;7.178;2023-06-14T07:09:28;98694.81;;;29.88;29.13
62164;BME280;48149;51.132;7.178;2023-06-14T07:11:54;98702.50;;;29.08;28.71
62164;BME280;48149;51.132;7.178;2023-06-14T07:14:19;98699.72;;;29.49;28.60
62164;BME280;48149;51.132;7.178;2023-06-14T07:16:44;98702.41;;;29.49;28.24
62164;BME280;48149;51.132;7.178;2023-06-14T07:19:11;98705.66;;;29.55;28.46
62164;BME280;48149;51.132;7.178;2023-06-14T07:21:36;98712.47;;;29.28;28.92
62164;BME280;48149;51.132;7.178;2023-06-14T07:24:07;98709.09;;;28.78;28.85
62164;BME280;48149;51.132;7.178;2023-06-14T07:26:33;98699.41;;;28.97;28.51
62164;BME280;48149;51.132;7.178;2023-06-14T07:28:58;98692.91;;;29.31;28.09
62164;BME280;48149;51.132;7.178;2023-06-14T07:31:23;98695.75;;;30.56;27.24
62164;BME280;48149;51.132;7.178;2023-06-14T07:33:48;98697.47;;;29.51;27.66
62164;BME280;48149;51.132;7.178;2023-06-14T07:36:13;98695.13;;;29.62;27.40
62164;BME280;48149;51.132;7.178;2023-06-14T07:38:39;98700.44;;;30.19;26.89
62164;BME280;48149;51.132;7.178;2023-06-14T07:41:05;98705.38;;;30.17;26.74
62164;BME280;48149;51.132;7.178;2023-06-14T07:43:30;98705.00;;;30.83;25.70
62164;BME280;48149;51.132;7.178;2023-06-14T07:45:55;98706.25;;;30.33;25.76
62164;BME280;48149;51.132;7.178;2023-06-14T07:48:22;98703.22;;;30.10;26.10
62164;BME280;48149;51.132;7.178;2023-06-14T07:50:47;98707.72;;;30.83;25.83
62164;BME280;48149;51.132;7.178;2023-06-14T07:53:12;98702.53;;;29.77;27.23
62164;BME280;48149;51.132;7.178;2023-06-14T07:55:37;98707.16;;;31.17;25.42
62164;BME280;48149;51.132;7.178;2023-06-14T07:58:05;98705.69;;;30.80;26.09
62164;BME280;48149;51.132;7.178;2023-06-14T08:00:30;98706.69;;;30.35;26.72
62164;BME280;48149;51.132;7.178;2023-06-14T08:02:56;98708.72;;;31.18;26.49
62164;BME280;48149;51.132;7.178;2023-06-14T08:05:23;98705.00;;;30.95;26.37
62164;BME280;48149;51.132;7.178;2023-06-14T08:07:49;98714.00;;;31.42;26.15
62164;BME280;48149;51.132;7.178;2023-06-14T08:10:14;98701.09;;;30.16;26.43
62164;BME280;48149;51.132;7.178;2023-06-14T08:12:39;98705.53;;;30.60;26.68
62164;BME280;48149;51.132;7.178;2023-06-14T08:15:05;98698.84;;;30.18;26.20
62164;BME280;48149;51.132;7.178;2023-06-14T08:17:30;98702.97;;;29.55;27.82
62164;BME280;48149;51.132;7.178;2023-06-14T08:19:55;98712.72;;;31.24;26.24
62164;BME280;48149;51.132;7.178;2023-06-14T08:22:22;98705.41;;;31.25;26.62
62164;BME280;48149;51.132;7.178;2023-06-14T08:24:49;98703.19;;;30.87;26.45
62164;BME280;48149;51.132;7.178;2023-06-14T08:27:14;98694.97;;;32.17;25.78
62164;BME280;48149;51.132;7.178;2023-06-14T08:29:40;98696.59;;;32.21;26.05
62164;BME280;48149;51.132;7.178;2023-06-14T08:32:06;98699.69;;;32.20;25.72
62164;BME280;48149;51.132;7.178;2023-06-14T08:34:31;98703.44;;;31.84;25.82
62164;BME280;48149;51.132;7.178;2023-06-14T08:36:57;98710.81;;;31.25;27.75
62164;BME280;48149;51.132;7.178;2023-06-14T08:39:22;98709.22;;;31.51;26.04
62164;BME280;48149;51.132;7.178;2023-06-14T08:41:47;98708.00;;;31.80;26.56
62164;BME280;48149;51.132;7.178;2023-06-14T08:44:19;98698.19;;;32.57;24.57
62164;BME280;48149;51.132;7.178;2023-06-14T08:46:44;98706.56;;;33.29;24.37
62164;BME280;48149;51.132;7.178;2023-06-14T08:49:13;98703.72;;;31.95;26.82
62164;BME280;48149;51.132;7.178;2023-06-14T08:51:41;98701.63;;;32.04;25.93
62164;BME280;48149;51.132;7.178;2023-06-14T08:54:08;98707.34;;;32.02;26.50
62164;BME280;48149;51.132;7.178;2023-06-14T08:56:34;98705.22;;;31.61;26.54
62164;BME280;48149;51.132;7.178;2023-06-14T08:59:02;98705.06;;;31.26;26.69
62164;BME280;48149;51.132;7.178;2023-06-14T09:01:28;98700.84;;;29.60;27.98
62164;BME280;48149;51.132;7.178;2023-06-14T09:03:53;98692.78;;;32.07;25.96
62164;BME280;48149;51.132;7.178;2023-06-14T09:06:22;98695.63;;;32.84;25.63
62164;BME280;48149;51.132;7.178;2023-06-14T09:08:48;98697.09;;;31.92;26.48
62164;BME280;48149;51.132;7.178;2023-06-14T09:11:14;98700.75;;;33.50;25.67
62164;BME280;48149;51.132;7.178;2023-06-14T09:13:40;98698.94;;;33.35;24.86
62164;BME280;48149;51.132;7.178;2023-06-14T09:16:06;98694.75;;;32.80;26.08
62164;BME280;48149;51.132;7.178;2023-06-14T09:18:38;98694.19;;;32.16;26.50
62164;BME280;48149;51.132;7.178;2023-06-14T09:21:07;98705.38;;;31.52;26.75
62164;BME280;48149;51.132;7.178;2023-06-14T09:23:36;98707.47;;;31.59;26.88
62164;BME280;48149;51.132;7.178;2023-06-14T09:26:05;98705.47;;;32.92;26.51
62164;BME280;48149;51.132;7.178;2023-06-14T09:28:31;98709.75;;;32.39;26.68
62164;BME280;48149;51.132;7.178;2023-06-14T09:30:56;98708.31;;;32.99;26.33
62164;BME280;48149;51.132;7.178;2023-06-14T09:33:21;98706.44;;;30.92;29.04
62164;BME280;48149;51.132;7.178;2023-06-14T09:35:50;98708.09;;;33.26;27.68
62164;BME280;48149;51.132;7.178;2023-06-14T09:38:15;98705.59;;;32.99;28.56
62164;BME280;48149;51.132;7.178;2023-06-14T09:40:41;98714.59;;;33.45;26.92
62164;BME280;48149;51.132;7.178;2023-06-14T09:43:06;98709.91;;;32.61;27.89
62164;BME280;48149;51.132;7.178;2023-06-14T09:45:34;98709.06;;;33.83;26.82
62164;BME280;48149;51.132;7.178;2023-06-14T09:48:00;98720.44;;;32.32;26.90
62164;BME280;48149;51.132;7.178;2023-06-14T09:50:25;98713.81;;;30.28;29.56
62164;BME280;48149;51.132;7.178;2023-06-14T09:52:51;98727.78;;;33.23;27.93
62164;BME280;48149;51.132;7.178;2023-06-14T09:55:17;98717.91;;;33.57;26.63
62164;BME280;48149;51.132;7.178;2023-06-14T09:57:43;98724.16;;;35.19;25.11
62164;BME280;48149;51.132;7.178;2023-06-14T10:00:10;98714.53;;;34.95;25.72
62164;BME280;48149;51.132;7.178;2023-06-14T10:02:37;98714.06;;;36.76;23.43
62164;BME280;48149;51.132;7.178;2023-06-14T10:07:32;98715.81;;;38.25;22.54
62164;BME280;48149;51.132;7.178;2023-06-14T10:09:59;98721.25;;;38.43;22.06
62164;BME280;48149;51.132;7.178;2023-06-14T10:12:25;98724.31;;;34.40;26.56
62164;BME280;48149;51.132;7.178;2023-06-14T10:14:51;98721.16;;;34.98;25.71
62164;BME280;48149;51.132;7.178;2023-06-14T10:17:22;98716.38;;;35.58;25.25
62164;BME280;48149;51.132;7.178;2023-06-14T10:19:56;98721.03;;;36.59;24.49
62164;BME280;48149;51.132;7.178;2023-06-14T10:22:29;98721.69;;;37.46;23.01
62164;BME280;48149;51.132;7.178;2023-06-14T10:24:55;98721.03;;;36.59;23.10
62164;BME280;48149;51.132;7.178;2023-06-14T10:27:20;98713.09;;;38.25;21.61
62164;BME280;48149;51.132;7.178;2023-06-14T10:32:25;98714.25;;;38.38;20.84
62164;BME280;48149;51.132;7.178;2023-06-14T10:34:53;98725.53;;;40.34;19.90
62164;BME280;48149;51.132;7.178;2023-06-14T10:37:18;98711.00;;;39.44;19.97
62164;BME280;48149;51.132;7.178;2023-06-14T10:39:44;98719.81;;;40.18;19.15
62164;BME280;48149;51.132;7.178;2023-06-14T10:42:13;98708.41;;;38.22;20.41
62164;BME280;48149;51.132;7.178;2023-06-14T10:44:39;98716.09;;;38.66;19.75
62164;BME280;48149;51.132;7.178;2023-06-14T10:47:47;98705.31;;;37.92;20.40
62164;BME280;48149;51.132;7.178;2023-06-14T10:49:54;98722.91;;;41.71;18.60
62164;BME280;48149;51.132;7.178;2023-06-14T10:52:21;98710.44;;;40.15;19.07
62164;BME280;48149;51.132;7.178;2023-06-14T10:54:59;98712.25;;;39.84;19.17
62164;BME280;48149;51.132;7.178;2023-06-14T10:57:25;98709.56;;;41.46;18.22
62164;BME280;48149;51.132;7.178;2023-06-14T10:59:51;98708.69;;;41.76;18.07
62164;BME280;48149;51.132;7.178;2023-06-14T11:04:46;98717.72;;;40.66;18.65
62164;BME280;48149;51.132;7.178;2023-06-14T11:07:30;98715.00;;;38.50;19.68
62164;BME280;48149;51.132;7.178;2023-06-14T11:10:06;98710.31;;;40.63;17.82
62164;BME280;48149;51.132;7.178;2023-06-14T11:12:35;98708.16;;;41.38;17.94
62164;BME280;48149;51.132;7.178;2023-06-14T11:15:01;98716.84;;;40.39;18.07
62164;BME280;48149;51.132;7.178;2023-06-14T11:17:26;98711.22;;;39.71;18.44
62164;BME280;48149;51.132;7.178;2023-06-14T11:20:07;98711.94;;;41.94;18.04
62164;BME280;48149;51.132;7.178;2023-06-14T11:22:38;98707.97;;;39.32;19.33
62164;BME280;48149;51.132;7.178;2023-06-14T11:25:03;98717.00;;;39.25;18.25
62164;BME280;48149;51.132;7.178;2023-06-14T11:27:32;98706.56;;;39.03;18.69
62164;BME280;48149;51.132;7.178;2023-06-14T11:29:57;98703.84;;;41.07;18.91
62164;BME280;48149;51.132;7.178;2023-06-14T11:32:24;98700.13;;;43.64;16.57
62164;BME280;48149;51.132;7.178;2023-06-14T11:34:49;98701.50;;;41.36;18.09
62164;BME280;48149;51.132;7.178;2023-06-14T11:37:15;98713.63;;;40.10;18.35
62164;BME280;48149;51.132;7.178;2023-06-14T11:39:44;98705.53;;;42.01;17.98
62164;BME280;48149;51.132;7.178;2023-06-14T11:42:13;98700.31;;;42.69;16.79
62164;BME280;48149;51.132;7.178;2023-06-14T11:44:38;98705.44;;;39.59;19.39
62164;BME280;48149;51.132;7.178;2023-06-14T11:47:03;98704.38;;;41.98;18.48
62164;BME280;48149;51.132;7.178;2023-06-14T11:49:29;98700.25;;;43.25;17.45
62164;BME280;48149;51.132;7.178;2023-06-14T11:51:54;98698.91;;;43.65;17.37
62164;BME280;48149;51.132;7.178;2023-06-14T11:54:19;98694.16;;;43.17;17.39
62164;BME280;48149;51.132;7.178;2023-06-14T11:56:44;98700.09;;;45.21;16.03
62164;BME280;48149;51.132;7.178;2023-06-14T11:59:10;98693.50;;;45.65;15.82
62164;BME280;48149;51.132;7.178;2023-06-14T12:01:35;98686.19;;;43.39;17.35
62164;BME280;48149;51.132;7.178;2023-06-14T12:04:01;98687.34;;;42.07;17.56
62164;BME280;48149;51.132;7.178;2023-06-14T12:06:29;98693.94;;;40.86;18.68
62164;BME280;48149;51.132;7.178;2023-06-14T12:08:57;98694.41;;;42.87;17.28
62164;BME280;48149;51.132;7.178;2023-06-14T12:11:23;98694.25;;;45.06;15.29
62164;BME280;48149;51.132;7.178;2023-06-14T12:13:48;98698.91;;;44.26;16.09
62164;BME280;48149;51.132;7.178;2023-06-14T12:16:14;98696.16;;;44.68;16.30
62164;BME280;48149;51.132;7.178;2023-06-14T12:18:39;98708.84;;;45.32;16.63
62164;BME280;48149;51.132;7.178;2023-06-14T12:21:06;98701.50;;;41.32;17.38
62164;BME280;48149;51.132;7.178;2023-06-14T12:23:47;98683.41;;;43.55;16.04
62164;BME280;48149;51.132;7.178;2023-06-14T12:26:13;98702.81;;;42.21;16.96
62164;BME280;48149;51.132;7.178;2023-06-14T12:28:39;98699.91;;;40.44;18.47
62164;BME280;48149;51.132;7.178;2023-06-14T12:31:05;98696.28;;;44.89;15.74
62164;BME280;48149;51.132;7.178;2023-06-14T12:33:31;98688.28;;;43.31;16.43
62164;BME280;48149;51.132;7.178;2023-06-14T12:35:56;98688.06;;;43.90;16.02
62164;BME280;48149;51.132;7.178;2023-06-14T12:38:23;98696.63;;;44.37;15.89
62164;BME280;48149;51.132;7.178;2023-06-14T12:40:48;98683.72;;;40.87;17.90
62164;BME280;48149;51.132;7.178;2023-06-14T12:43:14;98690.53;;;42.84;17.48
62164;BME280;48149;51.132;7.178;2023-06-14T12:45:39;98696.81;;;43.21;16.46
62164;BME280;48149;51.132;7.178;2023-06-14T12:48:04;98702.31;;;45.26;14.98
62164;BME280;48149;51.132;7.178;2023-06-14T12:50:30;98699.56;;;45.00;14.53
62164;BME280;48149;51.132;7.178;2023-06-14T12:52:55;98695.63;;;41.84;16.83
62164;BME280;48149;51.132;7.178;2023-06-14T12:55:20;98708.47;;;40.16;17.66
62164;BME280;48149;51.132;7.178;2023-06-14T12:57:45;98695.72;;;41.27;17.11
62164;BME280;48149;51.132;7.178;2023-06-14T13:00:11;98681.84;;;43.54;16.40
62164;BME280;48149;51.132;7.178;2023-06-14T13:02:37;98706.91;;;43.92;16.31
62164;BME280;48149;51.132;7.178;2023-06-14T13:05:03;98701.63;;;41.75;17.56
62164;BME280;48149;51.132;7.178;2023-06-14T13:07:29;98711.03;;;42.83;17.28